Terminal Aerodrome Forecast
Issued by NWS Sioux Falls, SD

Home | Current Version | Previous Version | Text Only | Print | Product List | Glossary On
Versions: 1 2 3 4 5 6 7 8 9 10 11 12 13 14 15 16 17 18 19 20 21
000
FTUS43 KFSD 261733
TAFFSD
TAF
KFSD 261733Z 2618/2718 09006KT P6SM SCT025
     FM270000 11005KT P6SM SKC
     FM271100 11005KT 6SM BR SCT007
     FM271530 15010KT P6SM SCT022 BKN200=

USA.gov is the U.S. government's official web portal to all federal, state and local government web resources and services.